createdAt,value
2023-01-28T00:01:58.566Z,-2.98
2023-01-28T00:04:27.956Z,-2.99
2023-01-28T00:06:55.791Z,-2.91
2023-01-28T00:09:23.682Z,-2.77
2023-01-28T00:11:51.551Z,-2.82
2023-01-28T00:14:19.898Z,-2.75
2023-01-28T00:16:47.783Z,-2.74
2023-01-28T00:19:15.575Z,-2.66
2023-01-28T00:21:44.791Z,-2.68
2023-01-28T00:24:12.748Z,-2.71
2023-01-28T00:26:40.566Z,-2.67
2023-01-28T00:29:08.699Z,-2.69
2023-01-28T00:31:37.804Z,-2.72
2023-01-28T00:34:05.709Z,-2.71
2023-01-28T00:36:35.356Z,-2.76
2023-01-28T00:39:04.820Z,-2.73
2023-01-28T00:41:32.783Z,-2.83
2023-01-28T00:44:01.078Z,-2.82
2023-01-28T00:46:28.954Z,-2.76
2023-01-28T00:48:57.012Z,-2.83
2023-01-28T00:51:31.304Z,-2.90
2023-01-28T00:53:59.068Z,-2.69
2023-01-28T00:56:29.053Z,-2.63
2023-01-28T00:58:56.971Z,-2.62
2023-01-28T01:01:27.529Z,-2.61
2023-01-28T01:04:02.829Z,-2.68
2023-01-28T01:06:32.337Z,-2.50
2023-01-28T01:09:00.311Z,-2.46
2023-01-28T01:11:29.646Z,-2.50
2023-01-28T01:13:58.946Z,-2.45
2023-01-28T01:16:29.844Z,-2.44
2023-01-28T01:18:59.301Z,-2.64
2023-01-28T01:21:30.174Z,-2.49
2023-01-28T01:23:58.489Z,-2.57
2023-01-28T01:26:27.495Z,-2.61
2023-01-28T01:28:56.825Z,-2.65
2023-01-28T01:31:24.673Z,-2.58
2023-01-28T01:33:53.293Z,-2.56
2023-01-28T01:36:22.191Z,-2.52
2023-01-28T01:38:54.678Z,-2.53
2023-01-28T01:41:28.946Z,-2.50
2023-01-28T01:44:00.588Z,-2.43
2023-01-28T01:46:37.237Z,-2.46
2023-01-28T01:49:15.069Z,-2.36
2023-01-28T01:51:45.265Z,-2.35
2023-01-28T01:54:14.451Z,-2.34
2023-01-28T01:56:48.018Z,-2.34
2023-01-28T01:59:23.297Z,-2.29
2023-01-28T02:01:51.184Z,-2.24
2023-01-28T02:04:23.476Z,-2.35
2023-01-28T02:06:51.408Z,-2.36
2023-01-28T02:09:25.293Z,-2.37
2023-01-28T02:11:56.564Z,-2.41
2023-01-28T02:14:32.372Z,-2.38
2023-01-28T02:17:01.670Z,-2.37
2023-01-28T02:19:36.833Z,-2.36
2023-01-28T02:22:23.130Z,-2.40
2023-01-28T02:25:31.313Z,-2.48
2023-01-28T02:28:03.554Z,-2.45
2023-01-28T02:30:37.711Z,-2.45
2023-01-28T02:33:10.947Z,-2.41
2023-01-28T02:35:43.977Z,-2.42
2023-01-28T02:38:17.530Z,-2.39
2023-01-28T02:41:03.891Z,-2.39
2023-01-28T02:43:33.417Z,-2.47
2023-01-28T02:46:31.978Z,-2.41
2023-01-28T02:49:00.484Z,-2.46
2023-01-28T02:51:39.243Z,-2.37
2023-01-28T02:54:12.593Z,-2.36
2023-01-28T02:56:47.964Z,-2.31
2023-01-28T02:59:34.250Z,-2.21
2023-01-28T03:02:13.189Z,-2.06
2023-01-28T03:04:48.191Z,-2.00
2023-01-28T03:07:18.771Z,-2.00
2023-01-28T03:09:48.713Z,-2.03
2023-01-28T03:12:38.702Z,-2.04
2023-01-28T03:15:28.888Z,-1.99
2023-01-28T03:18:21.491Z,-1.97
2023-01-28T03:21:13.498Z,-1.92
2023-01-28T03:24:06.859Z,-1.87
2023-01-28T03:26:56.758Z,-1.83
2023-01-28T03:29:44.669Z,-1.74
2023-01-28T03:32:32.055Z,-1.72
2023-01-28T03:35:19.268Z,-1.71
2023-01-28T03:37:47.317Z,-1.72
2023-01-28T03:40:15.496Z,-1.62
2023-01-28T03:42:43.300Z,-1.57
2023-01-28T03:45:12.533Z,-1.52
2023-01-28T03:47:41.003Z,-1.54
2023-01-28T03:50:11.756Z,-1.44
2023-01-28T03:52:39.616Z,-1.41
2023-01-28T03:55:14.193Z,-1.41
2023-01-28T03:57:44.788Z,-1.41
2023-01-28T04:00:14.420Z,-1.25
2023-01-28T04:02:42.295Z,-1.15
2023-01-28T04:05:15.930Z,-1.14
2023-01-28T04:07:43.908Z,-1.07
2023-01-28T04:10:11.885Z,-1.16
2023-01-28T04:12:41.645Z,-0.96
2023-01-28T04:15:16.460Z,-0.95
2023-01-28T04:17:48.533Z,-1.09
2023-01-28T04:20:18.357Z,-0.89
2023-01-28T04:22:46.177Z,-0.85
2023-01-28T04:25:14.367Z,-0.74
2023-01-28T04:27:42.314Z,-0.69
2023-01-28T04:30:11.296Z,-0.58
2023-01-28T04:32:39.373Z,-0.54
2023-01-28T04:35:07.905Z,-0.46
2023-01-28T04:37:37.162Z,-0.44
2023-01-28T04:40:05.877Z,-0.39
2023-01-28T04:42:33.641Z,-0.31
2023-01-28T04:45:01.570Z,-0.27
2023-01-28T04:47:29.417Z,-0.23
2023-01-28T04:49:57.247Z,-0.15
2023-01-28T04:52:25.352Z,-0.24
2023-01-28T04:54:54.608Z,-0.25
2023-01-28T04:57:22.455Z,-0.04
2023-01-28T04:59:50.223Z,-0.03
2023-01-28T05:02:18.060Z,-0.02
2023-01-28T05:04:45.899Z,0.01
2023-01-28T05:07:13.888Z,-0.05
2023-01-28T05:09:41.733Z,0.10
2023-01-28T05:12:10.952Z,0.13
2023-01-28T05:14:38.806Z,0.01
2023-01-28T05:17:06.686Z,0.12
2023-01-28T05:19:34.739Z,0.17
2023-01-28T05:22:02.657Z,0.18
2023-01-28T05:24:30.682Z,0.24
2023-01-28T05:26:58.567Z,0.26
2023-01-28T05:29:27.745Z,0.32
2023-01-28T05:31:55.659Z,0.37
2023-01-28T05:34:23.463Z,0.39
2023-01-28T05:36:51.366Z,0.36
2023-01-28T05:39:19.645Z,0.40
2023-01-28T05:41:47.463Z,0.46
2023-01-28T05:44:15.508Z,0.46
2023-01-28T05:46:46.673Z,0.53
2023-01-28T05:49:14.543Z,0.53
2023-01-28T05:51:42.428Z,0.49
2023-01-28T05:54:10.974Z,0.43
2023-01-28T05:56:40.311Z,0.53
2023-01-28T05:59:10.374Z,0.51
2023-01-28T06:01:38.220Z,0.50
2023-01-28T06:04:07.593Z,0.47
2023-01-28T06:06:35.569Z,0.51
2023-01-28T06:09:03.525Z,0.48
2023-01-28T06:11:31.457Z,0.46
2023-01-28T06:13:59.407Z,0.46
2023-01-28T06:16:27.153Z,0.50
2023-01-28T06:18:54.960Z,0.45
2023-01-28T06:21:24.124Z,0.45
2023-01-28T06:23:52.063Z,0.39
2023-01-28T06:26:20.137Z,0.46
2023-01-28T06:28:47.994Z,0.49
2023-01-28T06:31:15.848Z,0.42
2023-01-28T06:33:43.775Z,0.46
2023-01-28T06:36:11.822Z,0.43
2023-01-28T06:38:40.954Z,0.46
2023-01-28T06:41:08.917Z,0.46
2023-01-28T06:43:36.825Z,0.40
2023-01-28T06:46:04.799Z,0.43
2023-01-28T06:48:32.836Z,0.39
2023-01-28T06:51:00.726Z,0.42
2023-01-28T06:53:28.503Z,0.41
2023-01-28T06:55:57.771Z,0.40
2023-01-28T06:58:25.698Z,0.36
2023-01-28T07:00:54.722Z,0.40
2023-01-28T07:03:22.783Z,0.34
2023-01-28T07:05:50.751Z,0.35
2023-01-28T07:08:18.748Z,0.37
2023-01-28T07:10:46.540Z,0.38
2023-01-28T07:13:15.749Z,0.34
2023-01-28T07:15:43.693Z,0.36
2023-01-28T07:18:11.611Z,0.37
2023-01-28T07:20:39.423Z,0.38
2023-01-28T07:23:07.258Z,0.39
2023-01-28T07:25:35.231Z,0.30
2023-01-28T07:28:03.022Z,0.36
2023-01-28T07:30:32.292Z,0.42
2023-01-28T07:33:01.021Z,0.45
2023-01-28T07:35:29.769Z,0.43
2023-01-28T07:38:00.014Z,0.39
2023-01-28T07:40:29.587Z,0.41
2023-01-28T07:42:57.648Z,0.39
2023-01-28T07:45:26.586Z,0.33
2023-01-28T07:47:56.828Z,0.42
2023-01-28T07:50:24.990Z,0.40
2023-01-28T07:52:52.828Z,0.41
2023-01-28T07:55:20.650Z,0.50
2023-01-28T07:57:52.840Z,0.56
2023-01-28T08:00:22.287Z,0.56
2023-01-28T08:02:51.104Z,0.56
2023-01-28T08:05:22.297Z,0.55
2023-01-28T08:07:50.425Z,0.56
2023-01-28T08:10:20.135Z,0.59
2023-01-28T08:12:55.005Z,0.62
2023-01-28T08:15:23.671Z,0.62
2023-01-28T08:17:51.520Z,0.58
2023-01-28T08:20:20.874Z,0.55
2023-01-28T08:22:48.679Z,0.67
2023-01-28T08:25:16.626Z,0.70
2023-01-28T08:27:44.841Z,0.72
2023-01-28T08:30:13.572Z,0.72
2023-01-28T08:32:41.628Z,0.71
2023-01-28T08:35:10.060Z,0.71
2023-01-28T08:37:39.249Z,0.72
2023-01-28T08:40:08.401Z,0.67
2023-01-28T08:42:36.346Z,0.76
2023-01-28T08:45:04.406Z,0.75
2023-01-28T08:47:32.215Z,0.82
2023-01-28T08:50:00.040Z,0.84
2023-01-28T08:52:28.144Z,0.87
2023-01-28T08:54:57.290Z,0.83
2023-01-28T08:57:25.295Z,0.85
2023-01-28T08:59:53.129Z,0.90
2023-01-28T09:02:31.102Z,0.97
2023-01-28T09:04:59.288Z,1.04
2023-01-28T09:07:27.085Z,1.10
2023-01-28T09:09:54.923Z,1.18
2023-01-28T09:12:24.325Z,1.21
2023-01-28T09:14:52.289Z,1.22
2023-01-28T09:17:20.569Z,1.24
2023-01-28T09:19:48.438Z,1.13
2023-01-28T09:22:16.301Z,1.25
2023-01-28T09:24:44.144Z,1.23
2023-01-28T09:27:13.398Z,1.19
2023-01-28T09:29:42.537Z,1.17
2023-01-28T09:32:10.456Z,1.14
2023-01-28T09:34:39.223Z,1.23
2023-01-28T09:37:07.103Z,1.25
2023-01-28T09:39:34.899Z,1.43
2023-01-28T09:42:19.628Z,1.42
2023-01-28T09:45:01.404Z,1.35
2023-01-28T09:47:33.808Z,1.40
2023-01-28T09:50:04.286Z,1.41
2023-01-28T09:52:36.472Z,1.55
2023-01-28T09:55:07.981Z,1.55
2023-01-28T09:57:42.911Z,1.60
2023-01-28T10:00:16.622Z,1.72
2023-01-28T10:02:59.013Z,1.82
2023-01-28T10:05:34.994Z,1.69
2023-01-28T10:08:16.377Z,1.68
2023-01-28T10:10:48.488Z,2.06
2023-01-28T10:13:29.750Z,2.16
2023-01-28T10:16:25.484Z,2.23
2023-01-28T10:18:58.173Z,2.35
2023-01-28T10:21:32.257Z,2.29
2023-01-28T10:24:04.607Z,2.38
2023-01-28T10:26:36.962Z,2.38
2023-01-28T10:29:12.083Z,2.43
2023-01-28T10:31:48.567Z,2.55
2023-01-28T10:34:18.977Z,2.56
2023-01-28T10:36:48.506Z,2.37
2023-01-28T10:39:17.905Z,2.44
2023-01-28T10:41:57.383Z,2.66
2023-01-28T10:44:33.567Z,2.89
2023-01-28T10:47:05.842Z,3.99
2023-01-28T10:49:41.338Z,5.39
2023-01-28T10:52:13.579Z,6.69
2023-01-28T10:54:41.406Z,7.62
2023-01-28T10:57:14.484Z,8.48
2023-01-28T10:59:43.127Z,8.85
2023-01-28T11:02:28.114Z,9.29
2023-01-28T11:05:04.625Z,9.56
2023-01-28T11:07:32.413Z,9.31
2023-01-28T11:10:00.272Z,8.48
2023-01-28T11:12:29.961Z,8.79
2023-01-28T11:14:59.918Z,9.07
2023-01-28T11:17:32.036Z,8.48
2023-01-28T11:20:09.967Z,7.83
2023-01-28T11:22:40.722Z,6.76
2023-01-28T11:25:19.702Z,5.90
2023-01-28T11:27:50.190Z,5.55
2023-01-28T11:30:23.317Z,5.12
2023-01-28T11:33:00.191Z,4.90
2023-01-28T11:35:30.955Z,5.58
2023-01-28T11:37:59.897Z,6.56
2023-01-28T11:40:29.048Z,6.81
2023-01-28T11:42:58.394Z,6.92
2023-01-28T11:45:35.663Z,6.76
2023-01-28T11:48:16.091Z,6.13
2023-01-28T11:50:52.645Z,5.75
2023-01-28T11:53:47.376Z,5.37
2023-01-28T11:56:29.290Z,5.10
2023-01-28T11:59:09.370Z,4.95
2023-01-28T12:01:45.602Z,4.71
2023-01-28T12:04:23.859Z,4.37
2023-01-28T12:07:11.134Z,4.36
2023-01-28T12:09:55.435Z,4.29
2023-01-28T12:12:51.363Z,4.28
2023-01-28T12:15:49.967Z,4.14
2023-01-28T12:18:33.499Z,4.09
2023-01-28T12:21:08.456Z,4.18
2023-01-28T12:23:54.029Z,4.03
2023-01-28T12:26:29.029Z,3.92
2023-01-28T12:29:17.637Z,4.00
2023-01-28T12:32:04.626Z,3.99
2023-01-28T12:34:49.455Z,3.89
2023-01-28T12:37:27.441Z,3.98
2023-01-28T12:40:15.974Z,3.86
2023-01-28T12:42:49.426Z,3.87
2023-01-28T12:45:21.741Z,3.89
2023-01-28T12:47:54.586Z,3.80
2023-01-28T12:50:26.792Z,3.78
2023-01-28T12:52:59.404Z,3.68
2023-01-28T12:55:40.946Z,3.68
2023-01-28T12:58:17.388Z,3.63
2023-01-28T13:00:49.740Z,3.66
2023-01-28T13:03:22.679Z,3.73
2023-01-28T13:05:53.296Z,3.69
2023-01-28T13:08:25.304Z,3.73
2023-01-28T13:10:54.899Z,3.62
2023-01-28T13:13:28.934Z,3.72
2023-01-28T13:15:56.956Z,3.65
2023-01-28T13:18:44.243Z,3.55
2023-01-28T13:21:17.663Z,3.59
2023-01-28T13:23:48.713Z,3.58
2023-01-28T13:26:31.730Z,3.36
2023-01-28T13:29:20.944Z,3.43
2023-01-28T13:31:52.286Z,3.35
2023-01-28T13:34:37.355Z,3.31
2023-01-28T13:37:16.650Z,3.30
2023-01-28T13:39:51.455Z,3.31
2023-01-28T13:42:26.008Z,3.21
2023-01-28T13:44:54.169Z,3.23
2023-01-28T13:47:27.194Z,3.02
2023-01-28T13:50:02.743Z,2.94
2023-01-28T13:52:33.344Z,2.89
2023-01-28T13:55:06.498Z,2.70
2023-01-28T13:58:14.267Z,2.61
2023-01-28T14:00:59.445Z,2.73
2023-01-28T14:03:51.299Z,2.68
2023-01-28T14:06:42.338Z,2.64
2023-01-28T14:09:39.637Z,2.58
2023-01-28T14:12:34.751Z,2.51
2023-01-28T14:15:20.876Z,2.43
2023-01-28T14:17:52.081Z,2.31
2023-01-28T14:20:24.199Z,2.21
2023-01-28T14:22:56.037Z,2.20
2023-01-28T14:25:31.373Z,2.09
2023-01-28T14:28:02.994Z,1.95
2023-01-28T14:30:42.704Z,1.84
2023-01-28T14:33:13.041Z,1.78
2023-01-28T14:35:46.131Z,1.60
2023-01-28T14:38:17.840Z,1.41
2023-01-28T14:40:46.854Z,1.39
2023-01-28T14:43:19.621Z,1.37
2023-01-28T14:46:09.880Z,1.40
2023-01-28T14:48:49.495Z,1.21
2023-01-28T14:51:48.028Z,1.10
2023-01-28T14:54:37.521Z,1.07
2023-01-28T14:57:20.709Z,1.03
2023-01-28T14:59:53.962Z,1.02
2023-01-28T15:02:24.861Z,0.89
2023-01-28T15:04:53.680Z,0.95
2023-01-28T15:07:23.737Z,0.85
2023-01-28T15:10:01.686Z,0.70
2023-01-28T15:12:31.090Z,0.66
2023-01-28T15:15:08.711Z,0.68
2023-01-28T15:17:38.825Z,0.55
2023-01-28T15:20:09.501Z,0.61
2023-01-28T15:22:38.518Z,0.68
2023-01-28T15:25:06.672Z,0.54
2023-01-28T15:27:34.581Z,0.51
2023-01-28T15:30:03.758Z,0.40
2023-01-28T15:32:32.886Z,0.45
2023-01-28T15:35:02.070Z,0.26
2023-01-28T15:37:30.022Z,0.10
2023-01-28T15:40:07.089Z,0.11
2023-01-28T15:42:35.655Z,-0.01
2023-01-28T15:45:05.508Z,-0.17
2023-01-28T15:47:35.624Z,-0.33
2023-01-28T15:50:07.633Z,-0.37
2023-01-28T15:52:37.440Z,-0.40
2023-01-28T15:55:08.013Z,-0.56
2023-01-28T15:57:36.732Z,-0.66
2023-01-28T16:00:13.277Z,-0.77
2023-01-28T16:02:45.735Z,-0.82
2023-01-28T16:05:34.620Z,-0.92
2023-01-28T16:08:05.309Z,-0.87
2023-01-28T16:10:33.327Z,-0.80
2023-01-28T16:13:07.347Z,-0.84
2023-01-28T16:15:38.501Z,-0.76
2023-01-28T16:18:07.706Z,-0.90
2023-01-28T16:20:35.493Z,-0.67
2023-01-28T16:23:04.673Z,-0.72
2023-01-28T16:25:35.025Z,-0.75
2023-01-28T16:28:04.142Z,-0.82
2023-01-28T16:30:32.596Z,-0.82
2023-01-28T16:33:02.455Z,-0.71
2023-01-28T16:35:47.122Z,-0.67
2023-01-28T16:38:19.299Z,-0.66
2023-01-28T16:40:48.114Z,-0.68
2023-01-28T16:43:17.527Z,-0.63
2023-01-28T16:45:46.128Z,-0.73
2023-01-28T16:48:15.282Z,-0.72
2023-01-28T16:50:44.037Z,-0.74
2023-01-28T16:53:28.328Z,-0.81
2023-01-28T16:55:56.845Z,-0.89
2023-01-28T16:58:27.616Z,-1.01
2023-01-28T17:00:55.914Z,-0.95
2023-01-28T17:03:25.326Z,-0.98
2023-01-28T17:05:53.117Z,-0.97
2023-01-28T17:08:20.909Z,-1.04
2023-01-28T17:10:53.750Z,-1.02
2023-01-28T17:13:23.099Z,-0.98
2023-01-28T17:15:51.085Z,-1.07
2023-01-28T17:18:19.168Z,-1.17
2023-01-28T17:20:48.402Z,-1.16
2023-01-28T17:23:17.489Z,-1.23
2023-01-28T17:25:45.554Z,-1.30
2023-01-28T17:28:13.292Z,-1.24
2023-01-28T17:30:42.005Z,-1.25
2023-01-28T17:33:10.270Z,-1.39
2023-01-28T17:35:38.369Z,-1.56
2023-01-28T17:38:07.619Z,-1.56
2023-01-28T17:40:35.495Z,-1.50
2023-01-28T17:43:03.289Z,-1.61
2023-01-28T17:45:32.236Z,-1.64
2023-01-28T17:48:00.228Z,-1.83
2023-01-28T17:50:28.231Z,-1.74
2023-01-28T17:52:56.761Z,-1.75
2023-01-28T17:55:26.810Z,-1.77
2023-01-28T17:57:54.635Z,-1.83
2023-01-28T18:00:22.941Z,-1.90
2023-01-28T18:02:52.573Z,-1.92
2023-01-28T18:05:20.807Z,-2.11
2023-01-28T18:07:50.256Z,-2.08
2023-01-28T18:10:18.876Z,-1.94
2023-01-28T18:12:48.223Z,-1.81
2023-01-28T18:15:16.413Z,-1.71
2023-01-28T18:17:44.621Z,-1.41
2023-01-28T18:20:12.770Z,-1.32
2023-01-28T18:22:40.583Z,-1.26
2023-01-28T18:25:09.241Z,-1.12
2023-01-28T18:27:37.077Z,-1.04
2023-01-28T18:30:07.164Z,-0.88
2023-01-28T18:32:35.617Z,-0.83
2023-01-28T18:35:03.535Z,-0.83
2023-01-28T18:37:31.321Z,-0.89
2023-01-28T18:39:59.185Z,-0.79
2023-01-28T18:42:27.396Z,-0.74
2023-01-28T18:44:55.259Z,-0.66
2023-01-28T18:47:24.524Z,-0.54
2023-01-28T18:49:52.306Z,-0.45
2023-01-28T18:52:20.253Z,-0.48
2023-01-28T18:54:48.128Z,-0.57
2023-01-28T18:57:16.280Z,-0.56
2023-01-28T18:59:44.077Z,-0.58
2023-01-28T19:02:15.790Z,-0.66
2023-01-28T19:04:44.925Z,-0.93
2023-01-28T19:07:13.322Z,-0.91
2023-01-28T19:09:41.093Z,-1.03
2023-01-28T19:12:08.978Z,-1.15
2023-01-28T19:14:36.746Z,-1.00
2023-01-28T19:17:04.610Z,-0.94
2023-01-28T19:19:32.553Z,-0.97
2023-01-28T19:22:02.389Z,-0.98
2023-01-28T19:24:31.707Z,-0.91
2023-01-28T19:26:59.556Z,-0.83
2023-01-28T19:29:28.582Z,-0.82
2023-01-28T19:31:56.442Z,-0.86
2023-01-28T19:34:24.275Z,-0.79
2023-01-28T19:36:52.115Z,-0.82
2023-01-28T19:39:21.468Z,-0.82
2023-01-28T19:41:49.197Z,-0.74
2023-01-28T19:44:16.972Z,-0.84
2023-01-28T19:46:44.959Z,-0.95
2023-01-28T19:49:13.141Z,-0.96
2023-01-28T19:51:41.049Z,-0.87
2023-01-28T19:54:08.955Z,-0.68
2023-01-28T19:56:38.666Z,-0.58
2023-01-28T19:59:06.922Z,-0.61
2023-01-28T20:01:36.007Z,-0.47
2023-01-28T20:04:04.819Z,-0.38
2023-01-28T20:06:33.777Z,-0.36
2023-01-28T20:09:05.085Z,-0.29
2023-01-28T20:11:33.364Z,-0.20
2023-01-28T20:14:02.825Z,-0.18
2023-01-28T20:16:32.163Z,-0.23
2023-01-28T20:19:01.971Z,-0.36
2023-01-28T20:21:30.750Z,-0.55
2023-01-28T20:24:00.640Z,-0.74
2023-01-28T20:26:31.252Z,-0.88
2023-01-28T20:29:03.007Z,-1.01
2023-01-28T20:31:31.083Z,-0.94
2023-01-28T20:33:59.174Z,-0.82
2023-01-28T20:36:27.051Z,-0.63
2023-01-28T20:38:54.965Z,-0.54
2023-01-28T20:41:25.328Z,-0.43
2023-01-28T20:43:54.056Z,-0.35
2023-01-28T20:46:24.745Z,-0.32
2023-01-28T20:48:54.997Z,-0.27
2023-01-28T20:51:25.953Z,-0.27
2023-01-28T20:53:54.047Z,-0.26
2023-01-28T20:56:24.314Z,-0.21
2023-01-28T20:58:56.128Z,-0.19
2023-01-28T21:01:27.699Z,-0.19
2023-01-28T21:03:56.546Z,-0.28
2023-01-28T21:06:25.376Z,-0.41
2023-01-28T21:08:54.110Z,-0.45
2023-01-28T21:11:23.334Z,-0.47
2023-01-28T21:13:51.418Z,-0.64
2023-01-28T21:16:19.459Z,-0.81
2023-01-28T21:18:49.151Z,-1.06
2023-01-28T21:21:20.079Z,-1.21
2023-01-28T21:23:48.251Z,-1.27
2023-01-28T21:26:16.453Z,-1.17
2023-01-28T21:28:44.636Z,-1.21
2023-01-28T21:31:15.898Z,-1.30
2023-01-28T21:33:44.146Z,-1.32
2023-01-28T21:36:15.975Z,-1.17
2023-01-28T21:38:44.106Z,-1.06
2023-01-28T21:41:12.057Z,-0.93
2023-01-28T21:43:39.871Z,-1.05
2023-01-28T21:46:07.684Z,-0.97
2023-01-28T21:48:35.676Z,-1.11
2023-01-28T21:51:25.711Z,-1.25
2023-01-28T21:53:55.189Z,-1.35
2023-01-28T21:56:23.034Z,-1.26
2023-01-28T21:59:08.449Z,-1.33
2023-01-28T22:01:36.336Z,-1.25
2023-01-28T22:04:04.155Z,-1.34
2023-01-28T22:06:31.958Z,-1.32
2023-01-28T22:09:01.631Z,-1.01
2023-01-28T22:11:29.614Z,-0.67
2023-01-28T22:13:57.541Z,-0.51
2023-01-28T22:16:25.302Z,-0.49
2023-01-28T22:18:53.059Z,-0.43
2023-01-28T22:21:20.940Z,-0.32
2023-01-28T22:23:48.749Z,-0.30
2023-01-28T22:26:18.184Z,-0.33
2023-01-28T22:28:46.030Z,-0.35
2023-01-28T22:31:15.365Z,-0.39
2023-01-28T22:33:44.061Z,-0.40
2023-01-28T22:36:15.232Z,-0.37
2023-01-28T22:38:44.375Z,-0.38
2023-01-28T22:41:14.447Z,-0.45
2023-01-28T22:43:43.793Z,-0.55
2023-01-28T22:46:12.519Z,-0.60
2023-01-28T22:48:40.931Z,-0.53
2023-01-28T22:51:12.368Z,-0.48
2023-01-28T22:53:40.249Z,-0.54
2023-01-28T22:56:08.664Z,-0.46
2023-01-28T22:58:36.501Z,-0.55
2023-01-28T23:01:06.293Z,-0.42
2023-01-28T23:03:34.629Z,-0.38
2023-01-28T23:06:04.548Z,-0.45
2023-01-28T23:08:33.578Z,-0.51
2023-01-28T23:11:02.891Z,-0.32
2023-01-28T23:13:52.957Z,-0.16
2023-01-28T23:16:39.843Z,-0.17
2023-01-28T23:19:27.283Z,-0.03
2023-01-28T23:22:12.943Z,-0.13
2023-01-28T23:24:40.863Z,-0.17
2023-01-28T23:27:09.286Z,-0.26
2023-01-28T23:29:38.499Z,-0.10
2023-01-28T23:32:10.977Z,-0.16
2023-01-28T23:34:42.130Z,-0.15
2023-01-28T23:37:10.984Z,-0.16
2023-01-28T23:39:38.725Z,-0.05
2023-01-28T23:42:10.988Z,0.06
2023-01-28T23:44:38.827Z,0.08
2023-01-28T23:47:08.091Z,0.15
2023-01-28T23:49:36.040Z,0.08
2023-01-28T23:52:05.064Z,0.08
2023-01-28T23:54:33.284Z,-0.03
2023-01-28T23:57:01.192Z,0.06
2023-01-28T23:59:29.356Z,0.04
